createdAt,value
2019-03-03T00:00:52.192Z,9.89
2019-03-03T00:03:21.884Z,9.90
2019-03-03T00:05:50.561Z,9.89
2019-03-03T00:08:19.290Z,9.89
2019-03-03T00:10:47.935Z,9.92
2019-03-03T00:13:16.597Z,9.87
2019-03-03T00:15:45.253Z,9.84
2019-03-03T00:18:13.901Z,9.86
2019-03-03T00:20:42.776Z,9.87
2019-03-03T00:23:11.424Z,9.84
2019-03-03T00:25:40.093Z,9.86
2019-03-03T00:28:08.781Z,9.83
2019-03-03T00:30:37.517Z,9.89
2019-03-03T00:33:06.310Z,9.90
2019-03-03T00:35:35.065Z,9.87
2019-03-03T00:38:14.399Z,9.89
2019-03-03T00:40:56.915Z,9.86
2019-03-03T00:43:30.186Z,9.83
2019-03-03T00:46:09.293Z,9.81
2019-03-03T00:48:45.554Z,9.80
2019-03-03T00:51:28.153Z,9.77
2019-03-03T00:54:01.433Z,9.83
2019-03-03T00:56:46.939Z,9.83
2019-03-03T00:59:20.051Z,9.84
2019-03-03T01:01:56.337Z,9.89
2019-03-03T01:04:41.549Z,9.85
2019-03-03T01:07:12.016Z,9.88
2019-03-03T01:09:42.293Z,9.97
2019-03-03T01:12:29.731Z,9.97
2019-03-03T01:15:02.701Z,9.89
2019-03-03T01:17:32.979Z,9.87
2019-03-03T01:20:06.439Z,9.86
2019-03-03T01:22:36.745Z,9.93
2019-03-03T01:25:07.246Z,9.96
2019-03-03T01:27:36.060Z,9.94
2019-03-03T01:30:11.247Z,9.93
2019-03-03T01:32:39.945Z,9.85
2019-03-03T01:35:11.248Z,9.89
2019-03-03T01:37:40.081Z,9.92
2019-03-03T01:40:11.180Z,9.88
2019-03-03T01:42:39.884Z,9.88
2019-03-03T01:45:11.499Z,9.97
2019-03-03T01:47:40.252Z,9.93
2019-03-03T01:50:11.272Z,9.94
2019-03-03T01:52:39.947Z,9.94
2019-03-03T01:55:11.510Z,9.93
2019-03-03T01:57:40.311Z,10.02
2019-03-03T02:00:26.739Z,10.08
2019-03-03T02:02:57.192Z,10.03
2019-03-03T02:05:26.050Z,10.11
2019-03-03T02:07:54.811Z,10.16
2019-03-03T02:10:24.966Z,10.15
2019-03-03T02:12:53.822Z,10.11
2019-03-03T02:15:22.470Z,10.16
2019-03-03T02:17:51.311Z,10.28
2019-03-03T02:20:20.094Z,10.29
2019-03-03T02:22:48.806Z,10.19
2019-03-03T02:25:17.590Z,10.22
2019-03-03T02:27:46.330Z,10.28
2019-03-03T02:30:18.475Z,10.24
2019-03-03T02:32:48.368Z,10.31
2019-03-03T02:35:17.162Z,10.36
2019-03-03T02:37:46.262Z,10.36
2019-03-03T02:40:19.453Z,10.35
2019-03-03T02:42:48.105Z,10.39
2019-03-03T02:45:18.900Z,10.37
2019-03-03T02:47:47.588Z,10.46
2019-03-03T02:50:16.734Z,10.12
2019-03-03T02:52:45.499Z,10.41
2019-03-03T02:55:18.495Z,10.43
2019-03-03T02:57:47.265Z,10.41
2019-03-03T03:00:23.473Z,10.37
2019-03-03T03:02:56.963Z,10.41
2019-03-03T03:05:28.775Z,10.41
2019-03-03T03:08:15.024Z,10.42
2019-03-03T03:11:01.509Z,10.43
2019-03-03T03:13:47.801Z,10.48
2019-03-03T03:16:20.854Z,10.50
2019-03-03T03:18:51.141Z,10.46
2019-03-03T03:21:24.400Z,10.49
2019-03-03T03:24:00.852Z,10.44
2019-03-03T03:26:31.101Z,10.39
2019-03-03T03:29:10.449Z,10.46
2019-03-03T03:31:40.776Z,10.39
2019-03-03T03:34:11.102Z,10.38
2019-03-03T03:36:56.449Z,10.38
2019-03-03T03:39:26.771Z,10.34
2019-03-03T03:42:00.200Z,10.21
2019-03-03T03:44:36.280Z,10.17
2019-03-03T03:47:06.637Z,10.18
2019-03-03T03:49:45.693Z,10.22
2019-03-03T03:52:18.817Z,10.18
2019-03-03T03:54:58.031Z,10.21
2019-03-03T03:57:44.577Z,10.17
2019-03-03T04:00:30.787Z,10.10
2019-03-03T04:03:01.162Z,10.16
2019-03-03T04:05:47.743Z,10.11
2019-03-03T04:08:23.860Z,10.08
2019-03-03T04:10:54.160Z,10.10
2019-03-03T04:13:36.632Z,10.12
2019-03-03T04:16:23.349Z,10.06
2019-03-03T04:19:09.831Z,10.05
2019-03-03T04:21:51.710Z,10.07
2019-03-03T04:24:25.016Z,10.05
2019-03-03T04:27:11.578Z,9.97
2019-03-03T04:29:41.863Z,9.88
2019-03-03T04:32:12.098Z,9.88
2019-03-03T04:34:58.682Z,9.90
2019-03-03T04:37:34.675Z,9.91
2019-03-03T04:40:21.206Z,9.90
2019-03-03T04:42:57.505Z,9.93
2019-03-03T04:45:30.501Z,9.89
2019-03-03T04:48:06.426Z,9.83
2019-03-03T04:50:42.742Z,9.77
2019-03-03T04:53:12.969Z,9.72
2019-03-03T04:55:45.910Z,9.74
2019-03-03T04:58:25.474Z,9.69
2019-03-03T05:00:55.910Z,9.71
2019-03-03T05:03:32.025Z,9.74
2019-03-03T05:06:18.445Z,9.76
2019-03-03T05:08:57.597Z,9.71
2019-03-03T05:12:14.461Z,9.76
2019-03-03T05:14:44.916Z,9.73
2019-03-03T05:17:21.327Z,9.63
2019-03-03T05:19:51.684Z,9.62
2019-03-03T05:22:20.324Z,9.67
2019-03-03T05:24:48.847Z,9.63
2019-03-03T05:27:17.482Z,9.66
2019-03-03T05:29:46.339Z,9.62
2019-03-03T05:32:15.065Z,9.65
2019-03-03T05:34:43.771Z,9.70
2019-03-03T05:37:12.548Z,9.64
2019-03-03T05:39:41.239Z,9.63
2019-03-03T05:42:09.888Z,9.60
2019-03-03T05:44:38.713Z,9.61
2019-03-03T05:47:07.418Z,9.61
2019-03-03T05:49:35.966Z,9.72
2019-03-03T05:52:05.444Z,9.72
2019-03-03T05:54:34.076Z,9.73
2019-03-03T05:57:02.879Z,9.75
2019-03-03T05:59:31.359Z,9.76
2019-03-03T06:02:00.086Z,9.77
2019-03-03T06:04:28.771Z,9.85
2019-03-03T06:06:57.341Z,9.81
2019-03-03T06:09:25.898Z,9.80
2019-03-03T06:11:54.599Z,9.81
2019-03-03T06:14:23.331Z,9.83
2019-03-03T06:16:51.992Z,9.81
2019-03-03T06:19:20.827Z,9.87
2019-03-03T06:21:49.604Z,9.84
2019-03-03T06:24:18.359Z,9.87
2019-03-03T06:26:53.089Z,9.83
2019-03-03T06:29:23.008Z,9.78
2019-03-03T06:31:51.778Z,9.78
2019-03-03T06:34:20.418Z,9.85
2019-03-03T06:36:49.054Z,9.83
2019-03-03T06:39:17.722Z,9.79
2019-03-03T06:41:46.495Z,9.76
2019-03-03T06:44:15.146Z,9.80
2019-03-03T06:46:43.939Z,9.82
2019-03-03T06:49:12.546Z,9.80
2019-03-03T06:51:41.209Z,9.85
2019-03-03T06:54:09.846Z,9.87
2019-03-03T06:56:38.483Z,9.88
2019-03-03T06:59:07.237Z,9.91
2019-03-03T07:01:35.965Z,9.90
2019-03-03T07:04:05.309Z,9.93
2019-03-03T07:06:33.946Z,9.93
2019-03-03T07:09:02.781Z,9.92
2019-03-03T07:11:31.543Z,9.90
2019-03-03T07:14:00.383Z,9.85
2019-03-03T07:16:29.138Z,9.85
2019-03-03T07:18:57.791Z,9.82
2019-03-03T07:21:26.435Z,9.92
2019-03-03T07:23:55.094Z,9.81
2019-03-03T07:26:24.078Z,9.78
2019-03-03T07:28:53.253Z,9.73
2019-03-03T07:31:22.221Z,9.69
2019-03-03T07:33:53.526Z,9.69
2019-03-03T07:36:22.372Z,9.67
2019-03-03T07:38:51.255Z,9.76
2019-03-03T07:41:22.622Z,9.84
2019-03-03T07:43:56.322Z,9.75
2019-03-03T07:46:25.197Z,9.75
2019-03-03T07:48:54.064Z,9.73
2019-03-03T07:51:23.006Z,9.76
2019-03-03T07:53:51.948Z,9.77
2019-03-03T07:56:20.720Z,9.79
2019-03-03T07:58:49.496Z,9.82
2019-03-03T08:01:18.418Z,9.86
2019-03-03T08:03:47.082Z,9.87
2019-03-03T08:06:15.722Z,9.89
2019-03-03T08:08:44.600Z,9.94
2019-03-03T08:11:13.380Z,9.90
2019-03-03T08:13:42.140Z,9.93
2019-03-03T08:16:11.027Z,10.00
2019-03-03T08:18:39.788Z,10.04
2019-03-03T08:21:08.570Z,10.05
2019-03-03T08:23:37.568Z,10.05
2019-03-03T08:26:06.567Z,10.10
2019-03-03T08:28:37.202Z,10.08
2019-03-03T08:31:06.177Z,10.10
2019-03-03T08:33:34.873Z,10.14
2019-03-03T08:36:04.938Z,10.17
2019-03-03T08:38:34.040Z,10.17
2019-03-03T08:41:06.024Z,10.16
2019-03-03T08:43:39.465Z,10.20
2019-03-03T08:46:26.003Z,10.15
2019-03-03T08:48:59.439Z,10.19
2019-03-03T08:51:36.327Z,10.16
2019-03-03T08:54:24.902Z,10.08
2019-03-03T08:57:11.652Z,10.14
2019-03-03T08:59:59.464Z,10.13
2019-03-03T09:02:54.348Z,10.11
2019-03-03T09:05:32.558Z,10.12
2019-03-03T09:08:09.354Z,10.13
2019-03-03T09:10:48.972Z,10.14
2019-03-03T09:13:28.252Z,10.14
2019-03-03T09:16:05.038Z,10.13
2019-03-03T09:18:54.887Z,10.15
2019-03-03T09:21:25.465Z,10.18
2019-03-03T09:23:55.859Z,10.16
2019-03-03T09:26:41.277Z,10.16
2019-03-03T09:29:29.966Z,10.14
2019-03-03T09:32:16.682Z,10.19
2019-03-03T09:34:46.978Z,10.18
2019-03-03T09:37:33.538Z,10.22
2019-03-03T09:40:09.533Z,10.22
2019-03-03T09:42:35.858Z,10.20
2019-03-03T09:45:15.939Z,10.25
2019-03-03T09:47:49.239Z,10.27
2019-03-03T09:50:34.719Z,10.28
2019-03-03T09:53:04.987Z,10.33
2019-03-03T09:55:35.445Z,10.33
2019-03-03T09:58:22.828Z,10.36
2019-03-03T10:01:11.369Z,10.37
2019-03-03T10:03:58.031Z,10.36
2019-03-03T10:06:40.342Z,10.42
2019-03-03T10:09:25.892Z,10.43
2019-03-03T10:11:56.231Z,10.44
2019-03-03T10:14:26.539Z,10.42
2019-03-03T10:16:56.830Z,10.44
2019-03-03T10:19:27.251Z,10.48
2019-03-03T10:21:57.552Z,10.48
2019-03-03T10:24:46.087Z,10.54
2019-03-03T10:27:22.179Z,10.54
2019-03-03T10:29:52.685Z,10.52
2019-03-03T10:32:39.380Z,10.53
2019-03-03T10:35:25.695Z,10.56
2019-03-03T10:37:58.664Z,10.58
2019-03-03T10:40:35.041Z,10.64
2019-03-03T10:43:05.359Z,10.67
2019-03-03T10:45:53.589Z,10.67
2019-03-03T10:48:33.009Z,10.68
2019-03-03T10:51:09.433Z,10.67
2019-03-03T10:53:39.729Z,10.65
2019-03-03T10:56:21.517Z,10.66
2019-03-03T10:59:06.685Z,10.63
2019-03-03T11:01:53.250Z,10.66
2019-03-03T11:04:23.568Z,10.69
2019-03-03T11:06:53.858Z,10.71
2019-03-03T11:09:42.331Z,10.75
2019-03-03T11:12:12.849Z,10.48
2019-03-03T11:14:52.077Z,10.85
2019-03-03T11:17:31.264Z,10.92
2019-03-03T11:20:04.621Z,10.61
2019-03-03T11:22:37.846Z,11.01
2019-03-03T11:25:26.246Z,11.07
2019-03-03T11:28:02.318Z,11.10
2019-03-03T11:30:42.351Z,11.14
2019-03-03T11:33:17.440Z,11.21
2019-03-03T11:35:47.951Z,11.28
2019-03-03T11:38:28.656Z,11.35
2019-03-03T11:41:05.176Z,11.42
2019-03-03T11:43:38.285Z,11.43
2019-03-03T11:46:27.013Z,11.39
2019-03-03T11:48:57.412Z,11.37
2019-03-03T11:51:39.880Z,11.38
2019-03-03T11:54:28.619Z,11.37
2019-03-03T11:57:15.275Z,11.36
2019-03-03T11:59:45.729Z,11.40
2019-03-03T12:02:24.998Z,11.44
2019-03-03T12:05:02.025Z,11.46
2019-03-03T12:07:32.425Z,11.42
2019-03-03T12:10:21.145Z,11.40
2019-03-03T12:13:03.245Z,11.40
2019-03-03T12:15:51.669Z,11.44
2019-03-03T12:18:22.010Z,11.46
2019-03-03T12:20:52.321Z,11.41
2019-03-03T12:23:38.150Z,11.39
2019-03-03T12:26:08.447Z,11.39
2019-03-03T12:28:47.626Z,11.39
2019-03-03T12:31:34.931Z,11.42
2019-03-03T12:34:19.901Z,11.42
2019-03-03T12:36:54.181Z,11.50
2019-03-03T12:39:42.772Z,11.44
2019-03-03T12:42:13.867Z,11.52
2019-03-03T12:44:47.201Z,11.55
2019-03-03T12:47:20.733Z,11.60
2019-03-03T12:50:00.221Z,11.52
2019-03-03T12:52:40.015Z,11.51
2019-03-03T12:55:14.012Z,11.42
2019-03-03T12:57:48.287Z,11.40
2019-03-03T13:00:20.225Z,11.45
2019-03-03T13:02:56.833Z,11.48
2019-03-03T13:05:43.993Z,11.41
2019-03-03T13:08:20.340Z,11.46
2019-03-03T13:11:02.847Z,11.50
2019-03-03T13:13:36.888Z,11.51
2019-03-03T13:16:23.908Z,11.48
2019-03-03T13:19:09.448Z,11.52
2019-03-03T13:21:48.877Z,11.50
2019-03-03T13:24:22.118Z,11.53
2019-03-03T13:26:58.682Z,11.56
2019-03-03T13:29:41.224Z,11.55
2019-03-03T13:32:24.242Z,11.54
2019-03-03T13:35:10.916Z,11.50
2019-03-03T13:37:41.710Z,11.52
2019-03-03T13:40:28.445Z,11.56
2019-03-03T13:43:00.531Z,11.61
2019-03-03T13:45:31.792Z,11.65
2019-03-03T13:48:01.292Z,11.70
2019-03-03T13:50:30.526Z,11.71
2019-03-03T13:52:59.491Z,11.71
2019-03-03T13:55:28.844Z,11.79
2019-03-03T13:57:58.052Z,11.82
2019-03-03T14:00:27.357Z,11.67
2019-03-03T14:02:56.742Z,11.86
2019-03-03T14:05:25.936Z,11.79
2019-03-03T14:07:54.947Z,11.69
2019-03-03T14:10:24.273Z,11.61
2019-03-03T14:12:53.777Z,11.58
2019-03-03T14:15:23.325Z,11.54
2019-03-03T14:17:52.461Z,11.51
2019-03-03T14:20:25.630Z,11.49
2019-03-03T14:22:55.554Z,11.48
2019-03-03T14:25:24.900Z,11.46
2019-03-03T14:27:54.209Z,11.47
2019-03-03T14:30:25.883Z,11.47
2019-03-03T14:32:54.830Z,11.49
2019-03-03T14:35:23.836Z,11.49
2019-03-03T14:37:53.025Z,11.44
2019-03-03T14:40:23.091Z,11.44
2019-03-03T14:42:52.394Z,11.38
2019-03-03T14:45:21.871Z,11.36
2019-03-03T14:47:50.833Z,11.36
2019-03-03T14:50:21.341Z,11.37
2019-03-03T14:52:56.806Z,11.32
2019-03-03T14:55:26.008Z,11.31
2019-03-03T14:57:55.145Z,11.30
2019-03-03T15:00:30.670Z,11.31
2019-03-03T15:03:02.089Z,11.27
2019-03-03T15:05:31.423Z,11.26
2019-03-03T15:08:00.185Z,11.22
2019-03-03T15:10:29.257Z,11.18
2019-03-03T15:12:58.310Z,11.17
2019-03-03T15:15:29.986Z,11.18
2019-03-03T15:17:59.317Z,11.21
2019-03-03T15:20:29.197Z,10.98
2019-03-03T15:22:58.292Z,11.20
2019-03-03T15:25:27.777Z,11.17
2019-03-03T15:27:56.788Z,11.14
2019-03-03T15:30:26.143Z,11.14
2019-03-03T15:32:55.268Z,11.10
2019-03-03T15:35:24.510Z,11.15
2019-03-03T15:37:55.692Z,10.92
2019-03-03T15:40:29.520Z,11.09
2019-03-03T15:42:58.745Z,11.13
2019-03-03T15:45:31.114Z,11.10
2019-03-03T15:48:00.286Z,11.09
2019-03-03T15:50:29.667Z,11.09
2019-03-03T15:52:58.968Z,11.10
2019-03-03T15:55:45.391Z,11.09
2019-03-03T15:58:14.978Z,11.14
2019-03-03T16:00:50.812Z,11.09
2019-03-03T16:03:20.237Z,11.08
2019-03-03T16:05:49.681Z,11.13
2019-03-03T16:08:20.860Z,11.10
2019-03-03T16:10:50.571Z,11.11
2019-03-03T16:13:20.059Z,11.12
2019-03-03T16:15:51.709Z,11.16
2019-03-03T16:18:20.672Z,11.17
2019-03-03T16:20:49.799Z,11.15
2019-03-03T16:23:19.078Z,11.09
2019-03-03T16:25:47.960Z,11.06
2019-03-03T16:28:17.418Z,11.00
2019-03-03T16:30:46.647Z,11.04
2019-03-03T16:33:20.455Z,10.99
2019-03-03T16:35:49.097Z,10.99
2019-03-03T16:38:24.280Z,10.99
2019-03-03T16:40:52.966Z,10.93
2019-03-03T16:43:21.918Z,10.96
2019-03-03T16:45:53.546Z,10.92
2019-03-03T16:48:23.870Z,10.93
2019-03-03T16:50:54.287Z,11.01
2019-03-03T16:53:31.976Z,11.07
2019-03-03T16:56:00.219Z,11.02
2019-03-03T16:58:30.955Z,11.03
2019-03-03T17:01:03.581Z,10.97
2019-03-03T17:03:32.907Z,11.12
2019-03-03T17:06:01.765Z,11.09
2019-03-03T17:08:30.458Z,11.09
2019-03-03T17:10:59.365Z,11.12
2019-03-03T17:13:41.662Z,11.15
2019-03-03T17:16:10.380Z,11.10
2019-03-03T17:18:39.393Z,11.18
2019-03-03T17:21:08.010Z,11.21
2019-03-03T17:23:36.634Z,11.23
2019-03-03T17:26:05.359Z,11.23
2019-03-03T17:28:34.013Z,11.23
2019-03-03T17:31:02.812Z,11.32
2019-03-03T17:33:31.551Z,11.36
2019-03-03T17:36:00.225Z,11.36
2019-03-03T17:38:35.281Z,11.41
2019-03-03T17:41:04.055Z,11.32
2019-03-03T17:43:32.776Z,11.34
2019-03-03T17:46:21.024Z,11.38
2019-03-03T17:48:51.879Z,11.33
2019-03-03T17:51:20.798Z,11.28
2019-03-03T17:53:49.445Z,11.35
2019-03-03T17:56:18.075Z,11.32
2019-03-03T17:58:46.951Z,11.20
2019-03-03T18:01:15.653Z,11.19
2019-03-03T18:03:44.299Z,11.27
2019-03-03T18:06:12.975Z,11.28
2019-03-03T18:08:41.608Z,11.16
2019-03-03T18:11:10.523Z,11.26
2019-03-03T18:13:39.183Z,11.22
2019-03-03T18:16:07.852Z,11.30
2019-03-03T18:18:36.570Z,11.23
2019-03-03T18:21:05.329Z,11.32
2019-03-03T18:23:34.075Z,11.02
2019-03-03T18:26:02.828Z,11.32
2019-03-03T18:28:31.563Z,11.29
2019-03-03T18:31:00.307Z,11.39
2019-03-03T18:33:28.988Z,11.36
2019-03-03T18:35:57.702Z,11.44
2019-03-03T18:38:27.019Z,11.39
2019-03-03T18:40:55.781Z,11.49
2019-03-03T18:43:24.535Z,11.39
2019-03-03T18:45:53.255Z,11.48
2019-03-03T18:48:21.959Z,11.38
2019-03-03T18:50:50.724Z,11.49
2019-03-03T18:53:19.442Z,11.50
2019-03-03T18:55:48.106Z,11.56
2019-03-03T18:58:16.767Z,11.46
2019-03-03T19:00:45.728Z,11.54
2019-03-03T19:03:14.457Z,11.52
2019-03-03T19:05:43.223Z,11.55
2019-03-03T19:08:12.059Z,11.46
2019-03-03T19:10:41.911Z,11.44
2019-03-03T19:13:10.747Z,11.50
2019-03-03T19:15:39.495Z,11.47
2019-03-03T19:18:08.209Z,11.49
2019-03-03T19:20:36.935Z,11.55
2019-03-03T19:23:05.700Z,11.60
2019-03-03T19:25:35.577Z,11.57
2019-03-03T19:28:04.900Z,11.51
2019-03-03T19:30:33.908Z,11.51
2019-03-03T19:33:11.450Z,11.53
2019-03-03T19:35:41.568Z,11.52
2019-03-03T19:38:17.923Z,11.51
2019-03-03T19:40:47.508Z,11.58
2019-03-03T19:43:16.588Z,11.60
2019-03-03T19:45:51.919Z,11.51
2019-03-03T19:48:21.005Z,11.60
2019-03-03T19:50:50.335Z,11.63
2019-03-03T19:53:19.289Z,11.57
2019-03-03T19:55:48.510Z,11.47
2019-03-03T19:58:17.417Z,11.62
2019-03-03T20:00:46.203Z,11.60
2019-03-03T20:03:15.094Z,11.60
2019-03-03T20:05:44.844Z,11.72
2019-03-03T20:08:13.683Z,11.74
2019-03-03T20:10:42.624Z,11.65
2019-03-03T20:13:11.644Z,11.76
2019-03-03T20:15:40.672Z,11.78
2019-03-03T20:18:12.720Z,11.74
2019-03-03T20:20:41.680Z,11.77
2019-03-03T20:23:14.039Z,11.84
2019-03-03T20:25:44.989Z,11.92
2019-03-03T20:28:13.816Z,11.78
2019-03-03T20:30:43.848Z,11.74
2019-03-03T20:33:12.563Z,11.74
2019-03-03T20:35:41.951Z,11.77
2019-03-03T20:38:10.873Z,11.73
2019-03-03T20:40:39.554Z,11.78
2019-03-03T20:43:08.363Z,11.74
2019-03-03T20:45:37.308Z,11.67
2019-03-03T20:48:07.837Z,11.73
2019-03-03T20:50:36.809Z,11.75
2019-03-03T20:53:05.781Z,11.80
2019-03-03T20:55:34.435Z,11.85
2019-03-03T20:58:03.227Z,11.79
2019-03-03T21:00:35.003Z,11.74
2019-03-03T21:03:07.627Z,11.73
2019-03-03T21:05:36.318Z,11.75
2019-03-03T21:08:16.880Z,11.84
2019-03-03T21:10:46.578Z,11.76
2019-03-03T21:13:16.640Z,11.77
2019-03-03T21:15:45.391Z,11.70
2019-03-03T21:18:14.071Z,11.65
2019-03-03T21:20:42.754Z,11.57
2019-03-03T21:23:11.335Z,11.57
2019-03-03T21:25:40.314Z,11.49
2019-03-03T21:28:09.059Z,11.54
2019-03-03T21:30:39.009Z,11.65
2019-03-03T21:33:08.539Z,11.62
2019-03-03T21:35:38.013Z,11.54
2019-03-03T21:38:06.877Z,11.62
2019-03-03T21:40:36.898Z,11.69
2019-03-03T21:43:05.815Z,11.72
2019-03-03T21:45:34.501Z,11.67
2019-03-03T21:48:05.170Z,11.70
2019-03-03T21:50:34.384Z,11.68
2019-03-03T21:53:03.132Z,11.79
2019-03-03T21:55:31.778Z,11.91
2019-03-03T21:58:00.911Z,11.88
2019-03-03T22:00:32.506Z,11.97
2019-03-03T22:03:01.301Z,11.84
2019-03-03T22:05:30.507Z,11.82
2019-03-03T22:07:59.943Z,11.81
2019-03-03T22:10:33.477Z,11.82
2019-03-03T22:13:04.941Z,11.87
2019-03-03T22:15:33.615Z,11.81
2019-03-03T22:18:02.344Z,11.90
2019-03-03T22:20:30.960Z,11.89
2019-03-03T22:23:01.480Z,11.95
2019-03-03T22:25:29.914Z,11.92
2019-03-03T22:27:58.639Z,12.03
2019-03-03T22:30:27.289Z,12.02
2019-03-03T22:32:55.972Z,11.98
2019-03-03T22:35:24.688Z,12.01
2019-03-03T22:37:53.562Z,11.95
2019-03-03T22:40:24.211Z,12.05
2019-03-03T22:42:52.919Z,12.00
2019-03-03T22:45:22.309Z,12.04
2019-03-03T22:47:51.010Z,12.08
2019-03-03T22:50:21.218Z,12.20
2019-03-03T22:52:50.077Z,12.20
2019-03-03T22:55:21.150Z,12.19
2019-03-03T22:57:49.834Z,12.10
2019-03-03T23:00:21.472Z,12.19
2019-03-03T23:02:50.126Z,12.14
2019-03-03T23:05:36.739Z,12.16
2019-03-03T23:08:08.286Z,12.19
2019-03-03T23:10:39.913Z,12.14
2019-03-03T23:13:17.381Z,12.13
2019-03-03T23:16:00.293Z,12.21
2019-03-03T23:18:50.231Z,12.21
2019-03-03T23:21:24.368Z,12.41
2019-03-03T23:24:13.798Z,12.28
2019-03-03T23:26:42.512Z,12.38
2019-03-03T23:29:11.190Z,12.34
2019-03-03T23:31:39.861Z,12.39
2019-03-03T23:34:08.584Z,12.20
2019-03-03T23:36:37.357Z,12.33
2019-03-03T23:39:07.468Z,12.27
2019-03-03T23:41:36.194Z,12.28
2019-03-03T23:44:05.218Z,12.36
2019-03-03T23:46:33.890Z,12.18
2019-03-03T23:49:02.609Z,12.22
2019-03-03T23:51:31.330Z,12.07
2019-03-03T23:54:00.006Z,12.04
2019-03-03T23:56:28.794Z,11.95
2019-03-03T23:58:57.336Z,12.01
